Time;durP1;ratioP1;P1;durP2;ratioP2;P2;SDS_P1;SDS_P2;PMS_P1;PMS_P2;Temp;Humidity;BMP_temperature;BMP_pressure;BME280_temperature;BME280_humidity;BME280_pressure;Samples;Min_cycle;Max_cycle;Signal;HPM_P1;HPM_P2
2023/02/25 00:00:43;;;;;;;17.47;8.00;;;3.00;99.90;;;;;;5005774;28;20030;-79
2023/02/25 00:03:10;;;;;;;12.20;6.90;;;3.00;99.90;;;;;;5006217;28;20410;-79
2023/02/25 00:05:39;;;;;;;11.70;6.73;;;2.90;99.90;;;;;;5002804;28;20030;-79
2023/02/25 00:08:06;;;;;;;13.83;7.33;;;2.90;99.90;;;;;;5006180;28;20088;-79
2023/02/25 00:10:32;;;;;;;12.30;6.83;;;2.80;99.90;;;;;;5005585;28;20026;-79
2023/02/25 00:12:58;;;;;;;10.03;5.97;;;2.80;99.90;;;;;;5005965;28;20022;-79
2023/02/25 00:15:24;;;;;;;14.03;6.80;;;2.70;99.90;;;;;;5009834;28;20026;-79
2023/02/25 00:17:49;;;;;;;13.60;7.00;;;2.60;99.90;;;;;;5010724;28;20029;-79
2023/02/25 00:20:16;;;;;;;11.10;6.77;;;2.60;99.90;;;;;;5010658;28;20495;-79
2023/02/25 00:22:42;;;;;;;10.17;6.47;;;2.50;99.90;;;;;;5010524;28;20817;-79
2023/02/25 00:25:08;;;;;;;14.80;6.60;;;2.50;99.90;;;;;;5010361;28;20109;-79
2023/02/25 00:27:35;;;;;;;13.97;7.17;;;2.50;99.90;;;;;;5011361;28;20107;-79
2023/02/25 00:30:00;;;;;;;14.37;7.50;;;2.40;99.90;;;;;;5010920;28;20410;-79
2023/02/25 00:32:26;;;;;;;14.03;6.90;;;2.40;99.90;;;;;;5007805;28;20034;-79
2023/02/25 00:34:52;;;;;;;11.00;6.23;;;2.30;99.90;;;;;;5009215;28;20022;-79
2023/02/25 00:37:18;;;;;;;13.07;6.93;;;2.30;99.90;;;;;;5010554;28;20049;-79
2023/02/25 00:39:43;;;;;;;10.90;6.53;;;2.30;99.90;;;;;;5007466;28;20032;-79
2023/02/25 00:42:14;;;;;;;9.27;5.23;;;2.30;99.90;;;;;;5011104;28;20029;-79
2023/02/25 00:44:43;;;;;;;12.17;5.80;;;2.30;99.90;;;;;;5010172;28;20041;-79
2023/02/25 00:47:08;;;;;;;10.77;5.67;;;2.20;99.90;;;;;;5008804;28;20026;-79
2023/02/25 00:49:34;;;;;;;11.47;6.13;;;2.20;99.90;;;;;;5007465;28;20085;-79
2023/02/25 00:52:00;;;;;;;10.63;5.73;;;2.20;99.90;;;;;;5009141;28;20109;-79
2023/02/25 00:54:26;;;;;;;9.23;5.33;;;2.20;99.90;;;;;;5009847;28;20781;-79
2023/02/25 00:56:52;;;;;;;8.83;4.70;;;2.20;99.90;;;;;;5008209;28;20014;-79
2023/02/25 00:59:18;;;;;;;10.07;5.40;;;2.10;99.90;;;;;;5009523;28;20022;-79
2023/02/25 01:01:43;;;;;;;9.50;5.47;;;2.10;99.90;;;;;;5008587;28;20022;-80
2023/02/25 01:04:09;;;;;;;13.03;5.47;;;2.00;99.90;;;;;;5009550;28;20101;-80
2023/02/25 01:06:37;;;;;;;8.20;5.37;;;1.90;99.90;;;;;;5006740;28;20022;-80
2023/02/25 01:09:05;;;;;;;8.37;5.20;;;1.90;99.90;;;;;;5009272;28;20048;-80
2023/02/25 01:11:34;;;;;;;9.23;5.40;;;1.90;99.90;;;;;;5008773;28;20108;-80
2023/02/25 01:14:05;;;;;;;10.33;5.47;;;1.90;99.90;;;;;;5009185;28;20030;-80
2023/02/25 01:16:32;;;;;;;10.53;5.43;;;1.80;99.90;;;;;;5010163;28;20057;-80
2023/02/25 01:19:01;;;;;;;9.20;6.07;;;1.80;99.90;;;;;;5008395;28;20109;-80
2023/02/25 01:21:30;;;;;;;10.90;7.13;;;1.70;99.90;;;;;;5010170;28;20382;-81
2023/02/25 01:23:59;;;;;;;9.70;6.67;;;1.70;99.90;;;;;;5009072;28;20026;-81
2023/02/25 01:26:34;;;;;;;10.23;6.30;;;1.60;99.90;;;;;;5008750;28;20018;-80
2023/02/25 01:29:00;;;;;;;11.38;7.20;;;1.60;99.90;;;;;;5008711;28;20103;-81
2023/02/25 01:31:30;;;;;;;9.20;6.20;;;1.50;99.90;;;;;;5004224;28;20356;-81
2023/02/25 01:34:01;;;;;;;10.13;5.87;;;1.50;99.90;;;;;;5008475;28;20394;-81
2023/02/25 01:36:29;;;;;;;9.87;6.00;;;1.50;99.90;;;;;;5006126;28;20022;-81
2023/02/25 01:38:55;;;;;;;9.07;6.13;;;1.50;99.90;;;;;;5005852;28;20045;-81
2023/02/25 01:41:21;;;;;;;10.00;6.03;;;1.40;99.90;;;;;;5007515;28;20526;-80
2023/02/25 01:44:06;;;;;;;10.10;6.10;;;1.40;99.90;;;;;;5010271;28;20049;-81
2023/02/25 01:46:31;;;;;;;8.53;5.40;;;1.40;99.90;;;;;;5009170;28;20375;-81
2023/02/25 01:48:58;;;;;;;10.20;5.60;;;1.40;99.90;;;;;;5008748;28;20030;-81
2023/02/25 01:51:27;;;;;;;10.53;6.30;;;1.40;99.90;;;;;;5007886;28;20038;-81
2023/02/25 01:53:54;;;;;;;9.80;6.17;;;1.40;99.90;;;;;;5009519;28;20053;-81
2023/02/25 01:56:23;;;;;;;9.57;6.13;;;1.40;99.90;;;;;;5009856;28;20394;-81
2023/02/25 01:58:50;;;;;;;9.43;6.17;;;1.40;99.90;;;;;;5009570;28;20049;-81
2023/02/25 02:01:19;;;;;;;9.60;6.00;;;1.40;99.90;;;;;;5005512;28;20054;-81
2023/02/25 02:03:47;;;;;;;11.23;6.27;;;1.30;99.90;;;;;;5007272;28;20386;-81
2023/02/25 02:12:57;;;;;;;8.60;5.03;;;1.40;99.90;;;;;;5008375;28;20088;-81
2023/02/25 02:15:22;;;;;;;11.37;5.67;;;1.40;99.90;;;;;;5008151;28;20054;-81
2023/02/25 02:17:58;;;;;;;10.27;5.20;;;1.40;99.90;;;;;;5007237;28;20029;-81
2023/02/25 02:20:32;;;;;;;11.17;5.73;;;1.40;99.90;;;;;;5007275;28;20025;-81
2023/02/25 02:23:16;;;;;;;6.53;4.10;;;1.40;99.90;;;;;;5009616;28;20074;-81
2023/02/25 02:25:44;;;;;;;6.07;4.13;;;1.40;99.90;;;;;;5021024;28;20026;-82
2023/02/25 02:28:47;;;;;;;6.73;4.40;;;1.50;99.90;;;;;;5010272;28;20080;-81
2023/02/25 02:31:31;;;;;;;7.00;4.10;;;1.60;99.90;;;;;;5020940;28;20514;-82
2023/02/25 02:34:25;;;;;;;6.10;3.87;;;1.50;99.90;;;;;;5009843;28;20032;-82
2023/02/25 02:36:55;;;;;;;6.23;3.90;;;1.50;99.90;;;;;;5007567;28;20022;-81
2023/02/25 02:39:35;;;;;;;5.33;3.70;;;1.50;99.90;;;;;;5007762;28;20113;-82
2023/02/25 02:42:08;;;;;;;6.63;3.70;;;1.50;99.90;;;;;;5007510;28;20079;-82
2023/02/25 02:45:07;;;;;;;7.77;4.17;;;1.50;99.90;;;;;;5007234;28;20117;-82
2023/02/25 02:47:37;;;;;;;6.33;4.27;;;1.40;99.90;;;;;;4999730;28;20176;-82
2023/02/25 02:50:18;;;;;;;5.83;3.90;;;1.40;99.90;;;;;;5005528;28;20086;-82
2023/02/25 02:52:49;;;;;;;6.93;4.27;;;1.40;99.90;;;;;;5007952;28;20084;-82
2023/02/25 02:55:25;;;;;;;7.37;4.87;;;1.40;99.90;;;;;;5007698;28;20033;-82
2023/02/25 02:58:09;;;;;;;5.70;3.70;;;1.30;99.90;;;;;;5007498;28;20032;-82
2023/02/25 03:00:39;;;;;;;5.53;3.67;;;1.30;99.90;;;;;;5020354;28;20025;-81
2023/02/25 03:03:35;;;;;;;6.07;3.70;;;1.20;99.90;;;;;;5007012;28;20028;-82
2023/02/25 03:06:11;;;;;;;5.82;3.50;;;1.30;99.90;;;;;;5004987;28;20025;-82
2023/02/25 03:09:07;;;;;;;7.53;3.63;;;1.20;99.90;;;;;;5002834;28;20053;-82
2023/02/25 03:11:32;;;;;;;7.80;4.18;;;1.20;99.90;;;;;;5004201;28;20092;-82
2023/02/25 03:13:58;;;;;;;5.93;3.70;;;1.20;99.90;;;;;;5010131;28;20018;-82
2023/02/25 03:16:33;;;;;;;5.53;4.10;;;1.20;99.90;;;;;;5008513;28;20108;-82
2023/02/25 03:19:06;;;;;;;;;;;1.20;99.90;;;;;;5007560;28;20037;-82
2023/02/25 03:21:41;;;;;;;4.43;3.07;;;1.20;99.90;;;;;;5004687;28;19920;-82
2023/02/25 03:24:12;;;;;;;4.23;2.67;;;1.20;99.90;;;;;;5007308;28;20025;-82
2023/02/25 03:26:41;;;;;;;6.20;3.27;;;1.20;99.90;;;;;;5008596;28;20805;-81
2023/02/25 03:29:16;;;;;;;7.40;3.50;;;1.30;99.90;;;;;;5002959;28;20068;-82
2023/02/25 03:32:05;;;;;;;4.80;3.17;;;1.30;99.90;;;;;;5007321;28;20030;-82
2023/02/25 03:34:36;;;;;;;8.70;3.63;;;1.20;99.90;;;;;;5005945;28;20061;-81
2023/02/25 03:37:07;;;;;;;4.30;2.80;;;1.20;99.90;;;;;;5008768;28;20022;-81
2023/02/25 03:39:41;;;;;;;6.87;3.53;;;1.20;99.90;;;;;;5006947;28;20029;-81
2023/02/25 03:42:11;;;;;;;5.83;3.73;;;1.30;99.90;;;;;;5004053;28;20040;-81
2023/02/25 03:44:44;;;;;;;6.63;3.87;;;1.20;99.90;;;;;;5007376;28;20440;-81
2023/02/25 03:47:12;;;;;;;5.97;3.50;;;1.30;99.90;;;;;;4999978;28;20023;-81
2023/02/25 03:49:47;;;;;;;5.97;3.97;;;1.30;99.90;;;;;;5009966;28;20029;-81
2023/02/25 03:52:16;;;;;;;7.13;4.00;;;1.30;99.90;;;;;;5036037;28;20049;-81
2023/02/25 03:54:42;;;;;;;7.87;4.47;;;1.30;99.90;;;;;;5009157;28;20030;-81
2023/02/25 03:57:08;;;;;;;6.23;3.87;;;1.30;99.90;;;;;;5011803;28;20652;-81
2023/02/25 03:59:33;;;;;;;7.97;4.80;;;1.30;99.90;;;;;;5010097;28;20034;-81
2023/02/25 04:02:00;;;;;;;6.70;4.67;;;1.30;99.90;;;;;;5009810;28;20498;-81
2023/02/25 04:04:26;;;;;;;7.10;4.50;;;1.30;99.90;;;;;;5007961;28;20372;-81
2023/02/25 04:06:51;;;;;;;10.10;5.27;;;1.30;99.90;;;;;;5008448;28;20029;-81
2023/02/25 04:09:18;;;;;;;8.80;5.37;;;1.20;99.90;;;;;;5004196;28;20072;-81
2023/02/25 04:11:43;;;;;;;9.47;5.73;;;1.30;99.90;;;;;;5011461;28;20109;-81
2023/02/25 04:14:09;;;;;;;11.00;5.97;;;1.20;99.90;;;;;;5009721;28;20505;-81
2023/02/25 04:16:34;;;;;;;8.63;5.90;;;1.30;99.90;;;;;;5008035;28;20036;-81
2023/02/25 04:19:00;;;;;;;11.80;7.20;;;1.30;99.90;;;;;;5010338;28;20028;-81
2023/02/25 04:21:36;;;;;;;12.80;7.90;;;1.30;99.90;;;;;;5009072;28;20053;-80
2023/02/25 04:24:04;;;;;;;14.23;8.57;;;1.30;99.90;;;;;;5008472;28;20019;-81
2023/02/25 04:26:30;;;;;;;11.67;7.37;;;1.40;99.90;;;;;;5009033;28;20025;-80
2023/02/25 04:28:56;;;;;;;14.40;7.70;;;1.40;99.90;;;;;;5010820;28;20080;-80
2023/02/25 04:31:21;;;;;;;11.50;8.17;;;1.40;99.90;;;;;;5010233;28;20022;-81
2023/02/25 04:33:48;;;;;;;11.17;7.23;;;1.40;99.90;;;;;;5007400;28;20032;-80
2023/02/25 04:36:31;;;;;;;12.40;7.93;;;1.50;99.90;;;;;;5007795;28;20108;-81
2023/02/25 04:39:00;;;;;;;12.47;7.70;;;1.40;99.90;;;;;;5009907;28;20405;-80
2023/02/25 04:41:29;;;;;;;10.53;7.80;;;1.40;99.90;;;;;;5008882;28;20076;-80
2023/02/25 04:43:54;;;;;;;13.43;8.43;;;1.40;99.90;;;;;;5010781;28;20783;-80
2023/02/25 04:46:20;;;;;;;13.63;8.63;;;1.40;99.90;;;;;;5008893;28;20034;-80
2023/02/25 04:48:45;;;;;;;11.83;7.90;;;1.50;99.90;;;;;;5008057;28;20055;-81
2023/02/25 04:51:11;;;;;;;12.77;8.20;;;1.50;99.90;;;;;;5007901;28;20025;-81
2023/02/25 04:53:36;;;;;;;12.73;8.57;;;1.50;99.90;;;;;;5009565;28;20085;-81
2023/02/25 04:56:07;;;;;;;11.80;8.60;;;1.50;99.90;;;;;;5010379;28;20030;-80
2023/02/25 04:58:34;;;;;;;12.90;8.60;;;1.50;99.90;;;;;;5011367;28;20379;-81
2023/02/25 05:01:01;;;;;;;12.20;8.93;;;1.50;99.90;;;;;;5007513;28;21380;-80
2023/02/25 05:03:27;;;;;;;12.70;8.77;;;1.50;99.90;;;;;;4999886;28;20022;-80
2023/02/25 05:05:53;;;;;;;13.97;8.93;;;1.60;99.90;;;;;;5007216;28;20029;-80
2023/02/25 05:08:19;;;;;;;12.90;8.70;;;1.60;99.90;;;;;;5008257;28;20029;-80
2023/02/25 05:10:45;;;;;;;12.77;8.90;;;1.60;99.90;;;;;;5007820;28;20045;-80
2023/02/25 05:13:10;;;;;;;13.87;9.27;;;1.60;99.90;;;;;;5008720;28;20133;-80
2023/02/25 05:15:36;;;;;;;13.97;9.17;;;1.70;99.90;;;;;;5010393;28;20025;-80
2023/02/25 05:18:01;;;;;;;13.20;9.07;;;1.70;99.90;;;;;;5007784;28;20076;-80
2023/02/25 05:20:27;;;;;;;13.83;9.17;;;1.70;99.90;;;;;;5009661;28;20026;-80
2023/02/25 05:22:53;;;;;;;12.70;8.77;;;1.70;99.90;;;;;;5008479;28;20467;-80
2023/02/25 05:25:19;;;;;;;14.30;8.90;;;1.70;99.90;;;;;;5007521;28;20375;-80
2023/02/25 05:27:44;;;;;;;14.13;9.10;;;1.70;99.90;;;;;;5007969;28;20026;-80
2023/02/25 05:30:11;;;;;;;12.97;9.20;;;1.70;99.90;;;;;;5008117;28;20034;-80
2023/02/25 05:32:37;;;;;;;15.00;10.27;;;1.70;99.90;;;;;;5007572;28;20109;-80
2023/02/25 05:35:03;;;;;;;13.53;9.07;;;1.80;99.90;;;;;;5007653;28;20037;-80
2023/02/25 05:37:30;;;;;;;13.17;8.77;;;1.80;99.90;;;;;;5008509;28;20434;-80
2023/02/25 05:39:57;;;;;;;16.63;10.57;;;1.80;99.90;;;;;;5006607;28;20061;-80
2023/02/25 05:42:23;;;;;;;14.83;9.30;;;1.80;99.90;;;;;;5004831;28;20494;-80
2023/02/25 05:44:48;;;;;;;13.63;9.10;;;1.80;99.90;;;;;;5007380;28;20037;-79
2023/02/25 05:47:14;;;;;;;13.67;8.90;;;1.90;99.90;;;;;;5008621;28;20033;-80
2023/02/25 05:49:41;;;;;;;18.03;10.13;;;1.80;99.90;;;;;;5006880;28;20033;-80
2023/02/25 05:52:07;;;;;;;14.43;9.03;;;1.80;99.90;;;;;;5009445;28;20391;-79
2023/02/25 05:54:33;;;;;;;15.67;9.00;;;1.80;99.90;;;;;;5007478;28;20045;-79
2023/02/25 05:57:00;;;;;;;14.17;9.30;;;1.80;99.90;;;;;;5005937;28;20026;-79
2023/02/25 05:59:26;;;;;;;14.97;9.33;;;1.90;99.90;;;;;;5006903;28;20037;-84
2023/02/25 06:01:51;;;;;;;16.93;9.83;;;1.90;99.90;;;;;;5009643;28;20022;-84
2023/02/25 06:04:17;;;;;;;13.70;8.23;;;1.90;99.90;;;;;;5004681;28;20029;-84
2023/02/25 06:06:47;;;;;;;15.87;8.50;;;2.00;99.90;;;;;;5008474;28;20101;-84
2023/02/25 06:09:17;;;;;;;15.40;9.60;;;2.00;99.90;;;;;;5003226;28;20104;-84
2023/02/25 06:11:43;;;;;;;14.87;9.40;;;1.90;99.90;;;;;;5006744;28;20128;-84
2023/02/25 06:14:09;;;;;;;14.30;8.50;;;1.90;99.90;;;;;;5008123;28;20140;-84
2023/02/25 06:16:37;;;;;;;19.77;9.43;;;1.90;99.90;;;;;;5005877;28;20479;-84
2023/02/25 06:19:05;;;;;;;15.17;9.00;;;1.90;99.90;;;;;;5008602;28;20147;-84
2023/02/25 06:21:32;;;;;;;14.40;9.30;;;1.90;99.90;;;;;;5007987;28;20373;-84
2023/02/25 06:24:01;;;;;;;13.80;9.27;;;1.90;99.90;;;;;;5003496;28;20849;-84
2023/02/25 06:26:27;;;;;;;16.43;10.17;;;1.90;99.90;;;;;;5007146;28;20037;-75
2023/02/25 06:28:53;;;;;;;17.47;10.07;;;1.90;99.90;;;;;;5004028;28;20430;-85
2023/02/25 06:31:21;;;;;;;16.90;9.57;;;1.90;99.90;;;;;;5008569;28;20068;-85
2023/02/25 06:33:49;;;;;;;14.23;9.70;;;1.90;99.90;;;;;;5004941;28;20034;-85
2023/02/25 06:36:16;;;;;;;17.10;9.83;;;1.90;99.90;;;;;;5006468;28;20269;-85
2023/02/25 06:38:42;;;;;;;16.37;9.73;;;1.90;99.90;;;;;;5005814;28;20019;-84
2023/02/25 06:41:12;;;;;;;16.23;10.33;;;1.90;99.90;;;;;;5001842;28;20014;-82
2023/02/25 06:43:38;;;;;;;20.33;10.20;;;1.90;99.90;;;;;;5010403;28;20018;-81
2023/02/25 06:46:10;;;;;;;17.40;9.60;;;1.90;99.90;;;;;;5003549;28;20021;-81
2023/02/25 06:48:35;;;;;;;14.77;9.57;;;1.90;99.90;;;;;;5004720;28;20029;-81
2023/02/25 06:51:03;;;;;;;15.53;10.00;;;1.90;99.90;;;;;;4996511;28;20487;-81
2023/02/25 06:53:29;;;;;;;15.07;10.30;;;1.90;99.90;;;;;;5007749;28;20050;-81
2023/02/25 06:55:56;;;;;;;16.00;10.10;;;1.90;99.90;;;;;;5003902;28;20092;-81
2023/02/25 06:58:22;;;;;;;14.47;9.20;;;2.00;99.90;;;;;;5004253;28;20042;-81
2023/02/25 07:00:48;;;;;;;14.90;9.60;;;1.90;99.90;;;;;;5002389;28;20053;-81
2023/02/25 07:03:14;;;;;;;13.03;9.57;;;1.90;99.90;;;;;;5009157;28;20104;-81
2023/02/25 07:05:39;;;;;;;14.67;9.37;;;2.00;99.90;;;;;;5006835;28;20061;-81
2023/02/25 07:08:05;;;;;;;14.57;9.60;;;2.00;99.90;;;;;;5006556;28;20061;-81
2023/02/25 07:10:31;;;;;;;14.23;9.20;;;2.00;99.90;;;;;;5004364;28;20916;-76
2023/02/25 07:12:56;;;;;;;16.40;9.90;;;2.00;99.90;;;;;;5004077;28;20104;-82
2023/02/25 07:15:22;;;;;;;12.70;8.33;;;2.10;99.90;;;;;;5001910;28;20029;-81
2023/02/25 07:17:47;;;;;;;14.90;9.20;;;2.10;99.90;;;;;;5002003;28;20478;-82
2023/02/25 07:20:14;;;;;;;14.50;8.00;;;2.10;99.90;;;;;;5000577;28;20030;-83
2023/02/25 07:22:40;;;;;;;11.67;8.30;;;2.20;99.90;;;;;;5004900;28;20022;-81
2023/02/25 07:25:08;;;;;;;14.87;8.67;;;2.20;99.90;;;;;;5008350;28;20390;-82
2023/02/25 07:27:33;;;;;;;15.00;8.80;;;2.20;99.90;;;;;;5006120;28;20022;-81
2023/02/25 07:30:04;;;;;;;15.87;8.37;;;2.30;99.90;;;;;;5004829;28;20173;-78
2023/02/25 07:32:30;;;;;;;13.57;9.47;;;2.30;99.90;;;;;;5006098;28;20496;-78
2023/02/25 07:34:55;;;;;;;16.17;9.33;;;2.30;99.90;;;;;;5002244;28;20171;-78
2023/02/25 07:37:21;;;;;;;18.43;10.17;;;2.30;99.90;;;;;;4995075;28;20371;-79
2023/02/25 07:39:46;;;;;;;13.83;9.33;;;2.40;99.90;;;;;;4996067;28;20022;-79
2023/02/25 07:42:12;;;;;;;14.50;9.23;;;2.40;99.90;;;;;;5003772;28;20079;-79
2023/02/25 07:44:37;;;;;;;16.20;8.93;;;2.40;99.90;;;;;;5003339;28;20041;-79
2023/02/25 07:47:03;;;;;;;13.20;9.40;;;2.50;99.90;;;;;;5000875;28;20875;-78
2023/02/25 07:49:28;;;;;;;16.03;10.03;;;2.50;99.90;;;;;;4997743;28;21465;-78
2023/02/25 07:51:54;;;;;;;14.97;10.17;;;2.50;99.90;;;;;;4999797;28;20561;-78
2023/02/25 07:54:20;;;;;;;15.87;9.07;;;2.50;99.90;;;;;;4999379;28;20042;-78
2023/02/25 07:56:46;;;;;;;15.00;9.17;;;2.60;99.90;;;;;;5000225;28;20104;-78
2023/02/25 07:59:12;;;;;;;15.10;9.20;;;2.60;99.90;;;;;;5001138;28;20080;-78
2023/02/25 08:01:38;;;;;;;12.07;7.07;;;2.70;99.90;;;;;;4997882;28;20418;-78
2023/02/25 08:04:05;;;;;;;11.43;6.13;;;2.70;99.90;;;;;;5000222;28;20025;-78
2023/02/25 08:06:34;;;;;;;13.33;5.87;;;2.70;99.90;;;;;;4999803;28;20050;-78
2023/02/25 08:08:59;;;;;;;12.03;5.90;;;2.80;99.90;;;;;;5000383;28;20395;-78
2023/02/25 08:11:28;;;;;;;12.50;5.67;;;2.80;99.90;;;;;;5000018;28;20080;-78
2023/02/25 08:13:54;;;;;;;11.47;5.47;;;2.90;99.90;;;;;;5002740;28;20034;-78
2023/02/25 08:16:20;;;;;;;8.83;5.40;;;2.90;99.90;;;;;;5002898;28;20560;-78
2023/02/25 08:18:49;;;;;;;8.23;5.03;;;2.90;99.90;;;;;;4996704;28;20486;-78
2023/02/25 08:21:22;;;;;;;10.67;5.03;;;2.90;99.90;;;;;;5000226;28;20057;-78
2023/02/25 08:23:49;;;;;;;11.73;4.53;;;3.00;99.90;;;;;;5001957;28;20379;-79
2023/02/25 08:26:19;;;;;;;9.33;4.40;;;3.10;99.90;;;;;;5000095;28;20144;-79
2023/02/25 08:28:45;;;;;;;10.83;5.17;;;3.30;99.90;;;;;;4996720;28;20516;-79
2023/02/25 08:31:12;;;;;;;7.90;4.90;;;3.30;99.90;;;;;;4998591;28;20031;-79
2023/02/25 08:33:39;;;;;;;13.00;4.93;;;3.40;99.90;;;;;;4999066;28;20078;-79
2023/02/25 08:36:10;;;;;;;10.63;5.33;;;3.60;99.90;;;;;;5004156;28;20113;-79
2023/02/25 08:38:37;;;;;;;12.97;4.53;;;3.70;99.90;;;;;;5002063;28;20023;-79
2023/02/25 08:41:04;;;;;;;9.07;4.37;;;3.80;99.90;;;;;;5001329;28;21108;-79
2023/02/25 08:43:30;;;;;;;14.53;4.30;;;3.80;99.90;;;;;;5003311;28;20502;-79
2023/02/25 08:45:56;;;;;;;7.93;4.17;;;3.80;99.90;;;;;;5004907;28;20029;-79
2023/02/25 08:48:22;;;;;;;7.13;4.23;;;3.90;99.90;;;;;;5002632;28;20025;-79
2023/02/25 08:50:48;;;;;;;9.87;3.80;;;3.90;99.90;;;;;;5001623;28;20018;-79
2023/02/25 08:53:13;;;;;;;8.63;3.63;;;3.80;99.90;;;;;;4999398;28;20052;-79
2023/02/25 08:55:39;;;;;;;8.60;3.70;;;3.70;99.90;;;;;;5002200;28;20030;-79
2023/02/25 08:58:08;;;;;;;6.53;3.50;;;3.70;99.90;;;;;;5001334;28;20035;-79
2023/02/25 09:00:35;;;;;;;10.30;3.60;;;3.60;99.90;;;;;;5000829;28;20030;-78
2023/02/25 09:03:00;;;;;;;10.50;4.33;;;3.50;99.90;;;;;;5001480;28;20021;-79
2023/02/25 09:05:26;;;;;;;8.37;3.10;;;3.40;99.90;;;;;;5001620;28;20364;-79
2023/02/25 09:07:52;;;;;;;7.70;3.57;;;3.30;99.90;;;;;;5000116;28;20030;-79
2023/02/25 09:10:18;;;;;;;7.50;3.23;;;3.30;99.90;;;;;;5003623;28;20029;-79
2023/02/25 09:12:45;;;;;;;9.37;3.60;;;3.30;99.90;;;;;;5001665;28;20455;-79
2023/02/25 09:15:12;;;;;;;8.83;3.63;;;3.30;99.90;;;;;;5001142;28;20109;-79
2023/02/25 09:17:38;;;;;;;8.90;3.33;;;3.30;99.90;;;;;;5001761;28;20554;-79
2023/02/25 09:20:06;;;;;;;8.13;3.50;;;3.30;99.90;;;;;;5000954;28;20034;-78
2023/02/25 09:22:32;;;;;;;6.07;3.10;;;3.30;99.90;;;;;;5005467;28;20114;-78
2023/02/25 09:24:58;;;;;;;8.27;3.27;;;3.30;99.90;;;;;;5006904;28;20101;-79
2023/02/25 09:27:23;;;;;;;9.60;2.70;;;3.40;99.90;;;;;;5004530;28;20459;-78
2023/02/25 09:29:49;;;;;;;8.33;3.00;;;3.50;99.90;;;;;;5005672;28;20030;-78
2023/02/25 09:32:18;;;;;;;6.07;2.87;;;3.60;99.90;;;;;;5003173;28;20030;-79
2023/02/25 09:34:44;;;;;;;5.30;2.23;;;3.60;99.90;;;;;;5002954;28;20028;-79
2023/02/25 09:37:13;;;;;;;8.07;2.90;;;3.80;99.90;;;;;;5003952;28;20022;-79
2023/02/25 09:39:38;;;;;;;5.13;2.73;;;3.90;99.90;;;;;;5003102;28;20022;-79
2023/02/25 09:42:08;;;;;;;6.80;2.97;;;4.10;99.90;;;;;;5005589;28;20020;-79
2023/02/25 09:44:44;;;;;;;6.90;3.30;;;4.20;99.90;;;;;;5002405;28;20085;-79
2023/02/25 09:47:12;;;;;;;7.70;3.07;;;4.40;99.90;;;;;;4999441;28;20512;-78
2023/02/25 09:49:45;;;;;;;7.63;2.97;;;4.50;99.90;;;;;;5003012;28;20037;-78
2023/02/25 09:52:35;;;;;;;9.23;3.00;;;4.40;99.90;;;;;;5002404;28;20561;-79
2023/02/25 09:55:16;;;;;;;8.67;3.20;;;4.30;99.90;;;;;;5003479;28;20127;-79
2023/02/25 09:57:46;;;;;;;7.57;3.00;;;4.20;99.90;;;;;;5003032;28;20027;-78
2023/02/25 10:00:18;;;;;;;8.00;2.63;;;4.20;99.90;;;;;;5001744;28;20026;-79
2023/02/25 10:02:55;;;;;;;16.40;3.10;;;4.20;99.90;;;;;;5003685;28;20100;-78
2023/02/25 10:05:27;;;;;;;9.70;2.60;;;4.20;99.90;;;;;;5000002;28;20437;-79
2023/02/25 10:08:14;;;;;;;7.93;2.47;;;4.30;99.90;;;;;;5004893;28;20081;-79
2023/02/25 10:10:45;;;;;;;5.30;2.20;;;4.50;99.90;;;;;;5017004;28;20091;-79
2023/02/25 10:13:25;;;;;;;5.87;2.10;;;4.70;99.90;;;;;;5001014;28;20542;-79
2023/02/25 10:16:05;;;;;;;10.90;3.23;;;5.00;99.90;;;;;;5005126;28;20395;-78
2023/02/25 10:18:57;;;;;;;6.00;2.37;;;5.10;99.90;;;;;;5000150;28;20582;-79
2023/02/25 10:21:47;;;;;;;8.83;2.97;;;5.20;99.90;;;;;;5001032;28;20088;-79
2023/02/25 10:24:21;;;;;;;6.70;2.20;;;5.30;99.90;;;;;;5005053;28;20014;-78
2023/02/25 10:26:53;;;;;;;6.47;2.00;;;5.40;99.90;;;;;;5003640;28;20492;-80
2023/02/25 10:29:27;;;;;;;6.97;2.47;;;5.50;99.90;;;;;;5003507;28;20076;-80
2023/02/25 10:31:58;;;;;;;5.97;2.60;;;5.50;99.90;;;;;;4999748;28;20022;-80
2023/02/25 10:34:27;;;;;;;9.07;2.70;;;5.30;99.90;;;;;;5001879;28;20030;-80
2023/02/25 10:36:55;;;;;;;5.37;1.90;;;5.20;99.90;;;;;;5005248;28;20030;-80
2023/02/25 10:39:22;;;;;;;5.47;1.93;;;5.10;99.90;;;;;;5001308;28;20023;-80
2023/02/25 10:41:48;;;;;;;9.60;2.67;;;5.10;99.90;;;;;;5000096;28;20029;-80
2023/02/25 10:44:14;;;;;;;5.00;2.30;;;5.00;99.90;;;;;;5000135;28;20034;-80
2023/02/25 10:47:02;;;;;;;7.57;1.80;;;5.10;99.90;;;;;;4998897;28;20030;-80
2023/02/25 10:49:29;;;;;;;6.20;1.70;;;5.20;99.90;;;;;;4996635;28;20038;-81
2023/02/25 10:52:02;;;;;;;6.53;1.97;;;5.20;99.90;;;;;;5000566;28;20114;-84
2023/02/25 10:54:29;;;;;;;6.67;1.40;;;5.20;99.90;;;;;;5005019;28;20060;-80
2023/02/25 10:56:57;;;;;;;4.77;1.70;;;5.10;99.90;;;;;;5007236;28;20363;-80
2023/02/25 10:59:38;;;;;;;21.63;2.30;;;5.10;99.90;;;;;;5001236;28;20029;-80
2023/02/25 11:02:24;;;;;;;4.83;1.50;;;5.00;99.90;;;;;;5000387;28;20025;-81
2023/02/25 11:04:51;;;;;;;3.97;1.60;;;4.90;99.90;;;;;;5007760;28;20022;-81
2023/02/25 11:07:30;;;;;;;4.83;1.50;;;4.80;99.90;;;;;;5006841;28;20502;-80
2023/02/25 11:10:08;;;;;;;5.80;1.50;;;4.70;99.90;;;;;;5018871;28;20124;-80
2023/02/25 11:12:48;;;;;;;4.23;1.40;;;4.70;99.90;;;;;;5003262;28;20022;-81
2023/02/25 11:15:33;;;;;;;4.43;1.77;;;4.70;99.90;;;;;;5005521;28;20080;-81
2023/02/25 11:18:16;;;;;;;4.45;1.70;;;4.70;99.90;;;;;;5005967;28;20025;-81
2023/02/25 11:20:53;;;;;;;5.97;1.53;;;4.70;99.90;;;;;;4998881;28;20332;-80
2023/02/25 11:23:28;;;;;;;2.70;1.40;;;4.70;99.90;;;;;;5002982;28;20037;-80
2023/02/25 11:25:54;;;;;;;;;;;4.70;99.90;;;;;;5004876;28;20053;-80
2023/02/25 11:28:43;;;;;;;7.57;1.60;;;4.70;99.90;;;;;;5004253;28;20420;-80
2023/02/25 11:31:20;;;;;;;3.60;1.40;;;4.60;99.90;;;;;;5003454;28;20041;-80
2023/02/25 11:34:00;;;;;;;3.97;1.50;;;4.50;99.90;;;;;;5008226;28;20026;-80
2023/02/25 11:36:34;;;;;;;5.27;1.53;;;4.50;99.90;;;;;;5002851;28;20030;-80
2023/02/25 11:39:21;;;;;;;4.50;1.43;;;4.50;99.90;;;;;;5002851;28;20054;-80
2023/02/25 11:41:55;;;;;;;4.57;1.40;;;4.50;99.90;;;;;;5004510;28;20049;-81
2023/02/25 11:44:38;;;;;;;3.28;1.50;;;4.60;99.90;;;;;;5003417;28;20021;-81
2023/02/25 11:47:28;;;;;;;3.30;1.40;;;4.70;99.90;;;;;;5001230;28;20134;-80
2023/02/25 11:50:15;;;;;;;3.13;1.40;;;4.90;99.90;;;;;;5001315;28;20032;-80
2023/02/25 11:53:02;;;;;;;3.17;1.23;;;5.00;99.90;;;;;;5002597;28;20052;-80
2023/02/25 11:55:52;;;;;;;7.60;2.30;;;5.10;99.90;;;;;;5003915;28;20148;-81
2023/02/25 11:58:38;;;;;;;4.23;1.50;;;5.00;99.90;;;;;;5016582;28;20417;-80
2023/02/25 12:01:21;;;;;;;6.27;1.50;;;5.00;99.90;;;;;;5001924;28;20471;-80
2023/02/25 12:04:14;;;;;;;7.93;1.70;;;5.00;99.90;;;;;;4999849;28;20066;-80
2023/02/25 12:06:52;;;;;;;5.43;1.60;;;5.20;99.90;;;;;;5002416;28;20569;-80
2023/02/25 12:09:55;;;;;;;4.20;1.60;;;5.40;99.90;;;;;;5000696;28;20025;-80
2023/02/25 12:12:42;;;;;;;6.53;1.80;;;5.70;99.90;;;;;;5020476;28;20022;-78
2023/02/25 12:15:37;;;;;;;5.17;1.43;;;6.10;99.90;;;;;;5003405;28;20037;-78
2023/02/25 12:18:21;;;;;;;4.47;1.50;;;6.30;99.90;;;;;;5005688;28;20025;-78
2023/02/25 12:21:09;;;;;;;5.43;1.53;;;6.30;99.90;;;;;;5010189;28;20033;-79
2023/02/25 12:24:03;;;;;;;2.33;1.27;;;6.20;99.90;;;;;;5007337;28;20018;-79
2023/02/25 12:26:56;;;;;;;3.37;1.43;;;6.00;99.90;;;;;;5009247;28;20026;-79
2023/02/25 12:29:41;;;;;;;5.63;1.70;;;5.70;99.90;;;;;;5010572;28;20475;-79
2023/02/25 12:32:35;;;;;;;3.63;1.60;;;5.40;99.90;;;;;;5022577;28;20025;-79
2023/02/25 12:35:18;;;;;;;5.00;1.50;;;5.20;99.90;;;;;;5002339;28;20495;-79
2023/02/25 12:38:06;;;;;;;3.97;1.50;;;5.00;99.90;;;;;;5005246;28;20018;-79
2023/02/25 12:41:06;;;;;;;3.80;1.10;;;4.90;99.90;;;;;;5006785;28;20026;-79
2023/02/25 12:43:31;;;;;;;4.60;1.43;;;4.80;99.90;;;;;;5005976;28;20072;-79
2023/02/25 12:46:42;;;;;;;5.97;1.50;;;4.80;99.90;;;;;;5005497;28;20430;-79
2023/02/25 12:49:10;;;;;;;4.00;1.27;;;4.80;99.90;;;;;;5001178;28;20026;-79
2023/02/25 12:51:51;;;;;;;4.83;1.40;;;4.90;99.90;;;;;;5003199;28;20018;-79
2023/02/25 12:54:45;;;;;;;4.20;1.30;;;4.80;99.90;;;;;;5001403;28;20230;-79
2023/02/25 12:57:47;;;;;;;4.37;1.40;;;4.90;99.90;;;;;;5000225;28;20017;-79
2023/02/25 13:00:26;;;;;;;2.47;1.53;;;4.90;99.90;;;;;;5004007;28;20052;-79
2023/02/25 13:03:05;;;;;;;3.53;1.37;;;4.80;99.90;;;;;;5003754;28;20360;-79
2023/02/25 13:05:46;;;;;;;2.63;1.03;;;5.10;99.90;;;;;;5005108;28;20041;-79
2023/02/25 13:08:51;;;;;;;3.03;1.37;;;5.40;99.90;;;;;;5002904;28;20045;-79
2023/02/25 13:11:20;;;;;;;3.42;1.38;;;5.70;99.90;;;;;;4983073;28;20042;-79
2023/02/25 13:14:10;;;;;;;4.10;1.57;;;5.90;99.90;;;;;;5002658;28;20474;-79
2023/02/25 13:17:08;;;;;;;4.80;1.50;;;6.10;99.90;;;;;;5003039;28;20072;-79
2023/02/25 13:19:46;;;;;;;7.00;1.40;;;6.40;99.90;;;;;;5001805;28;20393;-78
2023/02/25 13:22:51;;;;;;;4.10;1.40;;;6.70;99.90;;;;;;4999776;28;20018;-79